Terminal Aerodrome Forecast
Issued by NWS Cleveland, OH

Home | Current Version | Previous Version | Graphics & Text | Print | Product List | Glossary On
Versions: 1 2 3 4 5 6 7 8 9 10 11 12 13 14 15 16 17
842
FTUS41 KCLE 241513 AAA
TAFTOL
TAF AMD
KTOL 241513Z 2415/2512 18010KT P6SM BKN035 OVC120
      TEMPO 2415/2419 BKN030
     FM242000 22010KT 6SM -SHRA VCTS OVC030CB
      TEMPO 2422/2501 3SM TSRA OVC025CB
     FM250100 22008KT P6SM OVC035
     FM250800 23006KT 3SM BR OVC035=

USA.gov is the U.S. government's official web portal to all federal, state and local government web resources and services.